Latest Coastal Weather Observations for Yamba

IDN60701

Issued at 12:52 am EST Wednesday 29 June 2016 (issued every 10 minutes, with the page automatically refreshed every 10 minutes)

About coastal observations | Map of coastal stations | Coastal observations for NSW | Marine services | Other Formats
Station Details ID: 058012 Name: YAMBA PILOT STATION Lat: -29.43 Lon: 153.36 Height: 27.4 m
Data from the previous 72 hours. | See also: Recent months at Yamba
Date/Time
EST
Temp
°C
Wind Pressure Rain since
9am
mm
Weather Cloud Vis
km
Sea
Height
m
Swell
Dir  Spd
kts
Gust
kts
hPa Trend Height
m
Period
s
Dir
29/12:30am 11.3 WSW 4 7 1024.5 - 0.0 - - - - - - -
29/12:00am 11.7 W 5 7 1024.5 - 0.0 - - - - - - -
 
Date/Time
EST
Temp
°C
Wind Pressure Rain since
9am
mm
Weather Cloud Vis
km
Sea
Height
m
Swell
Dir  Spd
kts
Gust
kts
hPa Trend Height
m
Period
s
Dir
28/11:30pm 13.3 SSW 5 7 1024.5 - 0.0 - - - - - - -
28/11:00pm 13.7 SSW 6 8 1024.5 - 0.0 - - - - - - -
28/10:30pm 13.7 SSW 6 9 1024.4 - 0.0 - - - - - - -
28/10:00pm 13.9 SSW 6 10 1024.3 - 0.0 - - - - - - -
28/09:30pm 14.4 SSW 7 10 1024.2 - 0.0 - - - - - - -
28/09:00pm 15.0 S 11 15 1024.0 - 0.0 - - - - - - -
28/08:30pm 15.1 S 10 16 1023.7 - 0.0 - - - - - - -
28/08:00pm 15.1 S 10 15 1023.5 - 0.0 - - - - - - -
28/07:30pm 15.5 S 10 13 1023.3 - 0.0 - - - - - - -
28/07:00pm 15.7 S 9 15 1022.8 - 0.0 - - - - - - -
28/06:30pm 15.9 S 11 15 1022.5 - 0.0 - - - - - - -
28/06:00pm 16.0 S 10 13 1022.0 - 0.0 - - - - - - -
28/05:30pm 15.5 SSW 6 8 1021.5 - 0.0 - - - - - - -
28/05:00pm 16.4 S 9 11 1020.9 - 0.0 - - - - - - -
28/04:30pm 17.4 S 10 14 1020.5 - 0.0 - - - - - - -
28/04:00pm 18.3 S 10 14 1020.0 - 0.0 - - - - - - -
28/03:30pm 18.9 S 10 17 1019.5 - 0.0 - - - - - - -
28/03:00pm 19.5 S 9 15 1019.2 - 0.0 - - - - - - -
28/02:30pm 19.1 SSE 11 18 1018.7 - 0.0 - - - - - - -
28/02:00pm 19.5 SSE 11 18 1018.3 - 0.0 - - - - - - -
28/01:30pm 19.1 S 7 12 1018.5 - 0.0 - - - - - - -
28/01:00pm 18.8 SW 6 10 1018.5 - 0.0 - - - - - - -
28/12:30pm 18.5 SW 6 12 1018.5 - 0.0 - - - - - - -
28/12:00pm 17.9 SW 6 12 1018.9 - 0.0 - - - - - - -
28/11:30am 17.0 SW 6 12 1019.1 - 0.0 - - - - - - -
28/11:00am 16.6 WSW 6 11 1019.2 - 0.0 - - - - - - -
28/10:30am 15.5 WSW 7 14 1019.3 - 0.0 - - - - - - -
28/10:00am 14.4 W 8 12 1019.4 - 0.0 - - - - - - -
28/09:30am 13.1 WSW 8 13 1019.0 - 0.0 - - - - - - -
28/09:00am 12.2 WSW 9 18 1019.0 - 0.2 - - - - - - -
28/08:30am 11.3 W 9 14 1019.0 - 0.2 - - - - - - -
28/08:00am 10.1 W 9 13 1018.7 - 0.2 - - - - - - -
28/07:30am 9.2 W 9 13 1018.6 - 0.2 - - - - - - -
28/07:00am 8.5 W 8 13 1018.1 - 0.2 - - - - - - -
28/06:30am 8.4 W 9 12 1017.9 - 0.2 - - - - - - -
28/06:00am 8.6 W 8 12 1017.5 - 0.2 - - - - - - -
28/05:30am 8.6 W 9 13 1017.2 - 0.2 - - - - - - -
28/05:00am 8.4 W 7 11 1016.9 - 0.2 - - - - - - -
28/04:30am 8.8 W 7 11 1016.8 - 0.2 - - - - - - -
28/04:00am 8.9 WSW 7 11 1017.0 - 0.2 - - - - - - -
28/03:30am 9.2 W 9 14 1016.9 - 0.2 - - - - - - -
28/03:00am 8.8 W 7 11 1016.9 - 0.2 - - - - - - -
28/02:30am 9.1 W 8 13 1016.8 - 0.2 - - - - - - -
28/02:00am 9.1 W 6 9 1016.9 - 0.2 - - - - - - -
28/01:30am 9.0 W 7 10 1016.6 - 0.2 - - - - - - -
28/01:00am 9.0 WNW 6 8 1016.7 - 0.2 - - - - - - -
28/12:30am 9.3 WNW 6 8 1016.8 - 0.2 - - - - - - -
28/12:00am 9.2 WSW 3 4 1016.8 - 0.2 - - - - - - -
 
Date/Time
EST
Temp
°C
Wind Pressure Rain since
9am
mm
Weather Cloud Vis
km
Sea
Height
m
Swell
Dir  Spd
kts
Gust
kts
hPa Trend Height
m
Period
s
Dir
27/11:30pm 9.7 W 6 10 1016.5 - 0.2 - - - - - - -
27/11:00pm 10.0 W 9 11 1016.4 - 0.2 - - - - - - -
27/10:30pm 10.5 W 11 15 1016.3 - 0.2 - - - - - - -
27/10:00pm 10.6 W 9 13 1016.3 - 0.2 - - - - - - -
27/09:30pm 11.0 WSW 6 11 1016.5 - 0.2 - - - - - - -
27/09:00pm 11.5 W 10 13 1016.1 - 0.2 - - - - - - -
27/08:30pm 12.0 W 8 13 1016.2 - 0.2 - - - - - - -
27/08:00pm 12.2 W 8 14 1015.9 - 0.2 - - - - - - -
27/07:30pm 12.5 W 9 15 1015.4 - 0.2 - - - - - - -
27/07:00pm 13.0 W 8 14 1015.4 - 0.2 - - - - - - -
27/06:30pm 13.5 W 9 15 1015.0 - 0.2 - - - - - - -
27/06:00pm 14.0 WSW 8 14 1014.6 - 0.2 - - - - - - -
27/05:30pm 14.5 W 9 15 1013.6 - 0.2 - - - - - - -
27/05:00pm 15.1 SW 7 13 1013.5 - 0.2 - - - - - - -
27/04:30pm 16.4 WSW 8 14 1012.9 - 0.2 - - - - - - -
27/04:00pm 17.1 SW 7 13 1012.4 - 0.2 - - - - - - -
27/03:30pm 18.0 SW 5 9 1012.0 - 0.2 - - - - - - -
27/03:00pm 19.1 W 9 14 1011.4 - 0.2 - - - - - - -
27/02:30pm 19.4 WNW 12 19 1011.1 - 0.2 - - - - - - -
27/02:00pm 19.6 WNW 10 16 1010.8 - 0.2 - - - - - - -
27/01:30pm 19.2 WNW 11 16 1011.1 - 0.2 - - - - - - -
27/01:00pm 19.5 NW 10 16 1011.7 - 0.2 - - - - - - -
27/12:30pm 18.2 W 12 19 1012.1 - 0.2 - - - - - - -
27/12:00pm 18.5 NW 10 14 1012.6 - 0.2 - - - - - - -
27/11:30am 17.4 WNW 11 17 1013.2 - 0.2 - - - - - - -
27/11:00am 17.4 NW 10 15 1013.6 - 0.2 - - - - - - -
27/10:30am 16.6 NW 9 13 1014.1 - 0.2 - - - - - - -
27/10:00am 14.7 NW 6 10 1014.8 - 0.2 - - - - - - -
27/09:30am 13.5 NW 5 9 1015.1 - 0.0 - - - - - - -
27/09:00am 12.4 NW 5 6 1015.2 - 0.0 - - - - - - -
27/08:30am 11.9 NW 4 7 1015.2 - 0.0 - - - - - - -
27/08:00am 11.4 NW 5 9 1015.5 - 0.0 - - - - - - -
27/07:30am 10.7 NNW 4 7 1015.3 - 0.0 - - - - - - -
27/07:00am 10.1 WSW 7 9 1015.5 - 0.0 - - - - - - -
27/06:30am 10.1 W 6 8 1014.9 - 0.0 - - - - - - -
27/06:00am 10.3 WSW 6 8 1015.2 - 0.0 - - - - - - -
27/05:30am 10.3 W 6 11 1015.0 - 0.0 - - - - - - -
27/05:00am 10.2 WSW 5 8 1015.1 - 0.0 - - - - - - -
27/04:30am 10.5 WSW 5 8 1014.7 - 0.0 - - - - - - -
27/04:00am 10.6 WSW 6 9 1014.6 - 0.0 - - - - - - -
27/03:30am 10.8 WSW 6 8 1014.6 - 0.0 - - - - - - -
27/03:00am 10.6 WSW 6 7 1014.6 - 0.0 - - - - - - -
27/02:30am 10.6 WSW 5 7 1014.8 - 0.0 - - - - - - -
27/02:00am 10.7 SW 5 7 1014.9 - 0.0 - - - - - - -
27/01:30am 10.8 SW 5 7 1015.4 - 0.0 - - - - - - -
27/01:00am 10.8 SW 6 9 1015.9 - 0.0 - - - - - - -
27/12:30am 10.8 SW 6 8 1016.1 - 0.0 - - - - - - -
27/12:00am 10.7 WSW 5 8 1016.6 - 0.0 - - - - - - -
 
Date/Time
EST
Temp
°C
Wind Pressure Rain since
9am
mm
Weather Cloud Vis
km
Sea
Height
m
Swell
Dir  Spd
kts
Gust
kts
hPa Trend Height
m
Period
s
Dir
26/11:30pm 11.0 SW 5 7 1016.9 - 0.0 - - - - - - -
26/11:00pm 11.1 WSW 5 7 1016.9 - 0.0 - - - - - - -
26/10:30pm 11.6 W 5 7 1016.9 - 0.0 - - - - - - -
26/10:00pm 11.4 W 5 6 1017.3 - 0.0 - - - - - - -
26/09:30pm 11.6 WSW 6 7 1017.2 - 0.0 - - - - - - -
26/09:00pm 12.0 WNW 4 5 1016.9 - 0.0 - - - - - - -
26/08:30pm 11.9 WNW 4 4 1017.3 - 0.0 - - - - - - -
26/08:00pm 12.1 W 5 5 1017.8 - 0.0 - - - - - - -
26/07:30pm 12.5 W 5 6 1018.5 - 0.0 - - - - - - -
26/07:00pm 12.8 WSW 4 4 1018.0 - 0.0 - - - - - - -
26/06:30pm 12.9 WSW 3 4 1018.3 - 0.0 - - - - - - -
26/06:00pm 13.1 CALM 0 0 1017.9 - 0.0 - - - - - - -
26/05:30pm 12.9 CALM 0 0 1017.4 - 0.0 - - - - - - -
26/05:00pm 12.6 CALM 0 0 1017.1 - 0.0 - - - - - - -
26/04:30pm 12.9 CALM 0 0 1017.4 - 0.0 - - - - - - -
26/04:00pm 12.9 SSW 3 5 1017.5 - 0.0 - - - - - - -
26/03:30pm 13.7 CALM 0 0 1017.8 - 0.0 - - - - - - -
26/03:00pm 13.9 W 2 3 1017.4 - 0.0 - - - - - - -
26/02:30pm 14.3 SW 2 4 1017.4 - 0.0 - - - - - - -
26/02:00pm 14.0 W 3 5 1017.8 - 0.0 - - - - - - -
26/01:30pm 13.4 WSW 3 5 1018.2 - 0.0 - - - - - - -
26/01:00pm 13.0 WSW 4 5 1019.0 - 0.0 - - - - - - -
26/12:30pm 13.2 WSW 4 7 1019.3 - 0.0 - - - - - - -
26/12:00pm 12.6 W 5 7 1019.7 - 0.0 - - - - - - -
26/11:30am 12.2 SW 4 6 1020.4 - 0.0 - - - - - - -
26/11:00am 11.0 WSW 6 9 1021.5 - 0.0 - - - - - - -
26/10:30am 10.2 WSW 6 8 1021.5 - 0.0 - - - - - - -
26/10:00am 10.4 WSW 5 9 1020.9 - 0.0 - - - - - - -
26/09:30am 9.2 W 7 11 1021.7 - 0.0 - - - - - - -
26/09:00am 8.3 W 8 12 1021.6 - 0.0 - - - - - - -
26/08:30am 6.8 WSW 6 9 1021.6 - 0.0 - - - - - - -
26/08:00am 6.2 WSW 6 9 1021.2 - 0.0 - - - - - - -
26/07:30am 5.9 SW 5 8 1020.8 - 0.0 - - - - - - -
26/07:00am 5.5 WSW 6 8 1020.8 - 0.0 - - - - - - -
26/06:30am 5.6 WSW 7 10 1020.5 - 0.0 - - - - - - -
26/06:00am 5.5 WSW 6 9 1020.1 - 0.0 - - - - - - -
26/05:30am 5.1 WSW 6 9 1019.8 - 0.0 - - - - - - -
26/05:00am 5.1 WSW 5 8 1019.4 - 0.0 - - - - - - -
26/04:30am 5.1 WSW 6 8 1019.2 - 0.0 - - - - - - -
26/04:00am 5.3 WSW 6 9 1018.8 - 0.0 - - - - - - -
26/03:30am 5.6 WSW 6 9 1019.2 - 0.0 - - - - - - -
26/03:00am 5.8 WSW 7 8 1018.8 - 0.0 - - - - - - -
26/02:30am 6.1 WSW 7 9 1019.1 - 0.0 - - - - - - -
26/02:00am 6.2 WSW 7 9 1019.1 - 0.0 - - - - - - -
26/01:30am 6.7 SW 5 8 1019.4 - 0.0 - - - - - - -
26/01:00am 7.0 SW 5 8 1019.5 - 0.0 - - - - - - -

Other Formats:

Comma delimited format used in spreadsheet applications
http://www.bom.gov.au/fwo/IDN60701/IDN60701.94589.axf

JavaScript Object Notation format (JSON) in row-major order
http://www.bom.gov.au/fwo/IDN60701/IDN60701.94589.json